sensor_id;sensor_type;location;lat;lon;timestamp;P1;durP1;ratioP1;P2;durP2;ratioP2
9238;SDS011;4654;43.242;27.976;2024-02-21T00:00:22;9.43;;;7.47;;
9238;SDS011;4654;43.242;27.976;2024-02-21T00:02:49;10.73;;;7.40;;
9238;SDS011;4654;43.242;27.976;2024-02-21T00:05:16;8.67;;;7.73;;
9238;SDS011;4654;43.242;27.976;2024-02-21T00:07:43;12.47;;;8.50;;
9238;SDS011;4654;43.242;27.976;2024-02-21T00:10:11;9.80;;;7.60;;
9238;SDS011;4654;43.242;27.976;2024-02-21T00:12:38;12.60;;;8.93;;
9238;SDS011;4654;43.242;27.976;2024-02-21T00:15:05;9.20;;;8.20;;
9238;SDS011;4654;43.242;27.976;2024-02-21T00:17:32;14.10;;;9.87;;
9238;SDS011;4654;43.242;27.976;2024-02-21T00:19:59;11.17;;;8.77;;
9238;SDS011;4654;43.242;27.976;2024-02-21T00:22:25;10.43;;;8.60;;
9238;SDS011;4654;43.242;27.976;2024-02-21T00:24:54;10.53;;;9.23;;
9238;SDS011;4654;43.242;27.976;2024-02-21T00:27:22;10.60;;;8.77;;
9238;SDS011;4654;43.242;27.976;2024-02-21T00:29:49;8.57;;;7.53;;
9238;SDS011;4654;43.242;27.976;2024-02-21T00:32:16;8.67;;;7.77;;
9238;SDS011;4654;43.242;27.976;2024-02-21T00:34:43;10.50;;;7.93;;
9238;SDS011;4654;43.242;27.976;2024-02-21T00:37:10;11.10;;;9.30;;
9238;SDS011;4654;43.242;27.976;2024-02-21T00:39:36;10.53;;;8.27;;
9238;SDS011;4654;43.242;27.976;2024-02-21T00:42:03;9.30;;;8.17;;
9238;SDS011;4654;43.242;27.976;2024-02-21T00:44:34;11.07;;;7.70;;
9238;SDS011;4654;43.242;27.976;2024-02-21T00:47:00;9.40;;;8.40;;
9238;SDS011;4654;43.242;27.976;2024-02-21T00:49:27;10.43;;;8.47;;
9238;SDS011;4654;43.242;27.976;2024-02-21T00:51:54;8.97;;;8.07;;
9238;SDS011;4654;43.242;27.976;2024-02-21T00:54:21;8.87;;;7.33;;
9238;SDS011;4654;43.242;27.976;2024-02-21T00:56:48;9.50;;;8.50;;
9238;SDS011;4654;43.242;27.976;2024-02-21T00:59:15;10.10;;;7.90;;
9238;SDS011;4654;43.242;27.976;2024-02-21T01:01:43;10.13;;;7.77;;
9238;SDS011;4654;43.242;27.976;2024-02-21T01:04:10;8.83;;;7.47;;
9238;SDS011;4654;43.242;27.976;2024-02-21T01:06:36;8.77;;;7.73;;
9238;SDS011;4654;43.242;27.976;2024-02-21T01:09:03;7.83;;;7.03;;
9238;SDS011;4654;43.242;27.976;2024-02-21T01:11:30;8.30;;;7.00;;
9238;SDS011;4654;43.242;27.976;2024-02-21T01:13:57;9.90;;;8.23;;
9238;SDS011;4654;43.242;27.976;2024-02-21T01:16:24;9.57;;;7.67;;
9238;SDS011;4654;43.242;27.976;2024-02-21T01:18:52;9.17;;;7.93;;
9238;SDS011;4654;43.242;27.976;2024-02-21T01:21:19;10.57;;;7.47;;
9238;SDS011;4654;43.242;27.976;2024-02-21T01:23:46;9.63;;;7.83;;
9238;SDS011;4654;43.242;27.976;2024-02-21T01:26:12;8.90;;;8.00;;
9238;SDS011;4654;43.242;27.976;2024-02-21T01:28:40;9.10;;;8.13;;
9238;SDS011;4654;43.242;27.976;2024-02-21T01:31:07;9.03;;;8.03;;
9238;SDS011;4654;43.242;27.976;2024-02-21T01:33:34;9.20;;;8.20;;
9238;SDS011;4654;43.242;27.976;2024-02-21T01:36:03;9.03;;;7.73;;
9238;SDS011;4654;43.242;27.976;2024-02-21T01:38:31;8.77;;;6.93;;
9238;SDS011;4654;43.242;27.976;2024-02-21T01:40:58;8.50;;;7.60;;
9238;SDS011;4654;43.242;27.976;2024-02-21T01:43:25;11.13;;;7.70;;
9238;SDS011;4654;43.242;27.976;2024-02-21T01:45:52;10.27;;;7.97;;
9238;SDS011;4654;43.242;27.976;2024-02-21T01:48:20;8.80;;;7.50;;
9238;SDS011;4654;43.242;27.976;2024-02-21T01:50:47;8.27;;;7.40;;
9238;SDS011;4654;43.242;27.976;2024-02-21T01:53:16;8.97;;;7.73;;
9238;SDS011;4654;43.242;27.976;2024-02-21T01:55:45;11.33;;;8.07;;
9238;SDS011;4654;43.242;27.976;2024-02-21T01:58:12;10.43;;;8.13;;
9238;SDS011;4654;43.242;27.976;2024-02-21T02:00:39;10.50;;;7.60;;
9238;SDS011;4654;43.242;27.976;2024-02-21T02:03:07;9.57;;;7.83;;
9238;SDS011;4654;43.242;27.976;2024-02-21T02:05:41;9.80;;;7.37;;
9238;SDS011;4654;43.242;27.976;2024-02-21T02:08:08;9.13;;;7.30;;
9238;SDS011;4654;43.242;27.976;2024-02-21T02:10:37;8.83;;;7.07;;
9238;SDS011;4654;43.242;27.976;2024-02-21T02:13:04;9.10;;;6.73;;
9238;SDS011;4654;43.242;27.976;2024-02-21T02:15:37;7.30;;;6.60;;
9238;SDS011;4654;43.242;27.976;2024-02-21T02:18:04;8.60;;;7.60;;
9238;SDS011;4654;43.242;27.976;2024-02-21T02:20:31;9.20;;;7.20;;
9238;SDS011;4654;43.242;27.976;2024-02-21T02:22:57;9.27;;;7.17;;
9238;SDS011;4654;43.242;27.976;2024-02-21T02:25:27;7.57;;;6.77;;
9238;SDS011;4654;43.242;27.976;2024-02-21T02:27:53;9.60;;;7.07;;
9238;SDS011;4654;43.242;27.976;2024-02-21T02:30:20;11.07;;;7.60;;
9238;SDS011;4654;43.242;27.976;2024-02-21T02:32:47;9.20;;;8.00;;
9238;SDS011;4654;43.242;27.976;2024-02-21T02:35:14;11.77;;;8.43;;
9238;SDS011;4654;43.242;27.976;2024-02-21T02:37:47;11.33;;;8.53;;
9238;SDS011;4654;43.242;27.976;2024-02-21T02:40:14;8.20;;;7.33;;
9238;SDS011;4654;43.242;27.976;2024-02-21T02:42:42;9.60;;;8.50;;
9238;SDS011;4654;43.242;27.976;2024-02-21T02:45:09;8.77;;;7.87;;
9238;SDS011;4654;43.242;27.976;2024-02-21T02:47:36;10.53;;;8.07;;
9238;SDS011;4654;43.242;27.976;2024-02-21T02:50:03;8.63;;;7.63;;
9238;SDS011;4654;43.242;27.976;2024-02-21T02:52:30;10.67;;;7.97;;
9238;SDS011;4654;43.242;27.976;2024-02-21T02:54:56;9.43;;;7.63;;
9238;SDS011;4654;43.242;27.976;2024-02-21T02:57:23;10.73;;;8.30;;
9238;SDS011;4654;43.242;27.976;2024-02-21T02:59:51;9.90;;;8.07;;
9238;SDS011;4654;43.242;27.976;2024-02-21T03:02:18;10.33;;;8.23;;
9238;SDS011;4654;43.242;27.976;2024-02-21T03:04:45;9.50;;;7.53;;
9238;SDS011;4654;43.242;27.976;2024-02-21T03:07:13;9.37;;;7.67;;
9238;SDS011;4654;43.242;27.976;2024-02-21T03:09:40;10.80;;;8.07;;
9238;SDS011;4654;43.242;27.976;2024-02-21T03:12:08;9.50;;;8.50;;
9238;SDS011;4654;43.242;27.976;2024-02-21T03:14:35;12.17;;;8.20;;
9238;SDS011;4654;43.242;27.976;2024-02-21T03:17:03;9.33;;;7.73;;
9238;SDS011;4654;43.242;27.976;2024-02-21T03:19:30;8.73;;;7.83;;
9238;SDS011;4654;43.242;27.976;2024-02-21T03:21:56;8.90;;;8.00;;
9238;SDS011;4654;43.242;27.976;2024-02-21T03:24:23;10.03;;;8.23;;
9238;SDS011;4654;43.242;27.976;2024-02-21T03:26:50;9.73;;;8.30;;
9238;SDS011;4654;43.242;27.976;2024-02-21T03:29:17;9.47;;;8.33;;
9238;SDS011;4654;43.242;27.976;2024-02-21T03:31:44;9.23;;;7.97;;
9238;SDS011;4654;43.242;27.976;2024-02-21T03:34:12;10.33;;;8.23;;
9238;SDS011;4654;43.242;27.976;2024-02-21T03:36:39;9.63;;;7.73;;
9238;SDS011;4654;43.242;27.976;2024-02-21T03:39:06;9.37;;;8.23;;
9238;SDS011;4654;43.242;27.976;2024-02-21T03:41:34;9.77;;;8.40;;
9238;SDS011;4654;43.242;27.976;2024-02-21T03:44:01;11.10;;;8.50;;
9238;SDS011;4654;43.242;27.976;2024-02-21T03:46:28;10.87;;;8.47;;
9238;SDS011;4654;43.242;27.976;2024-02-21T03:48:55;8.57;;;7.47;;
9238;SDS011;4654;43.242;27.976;2024-02-21T03:51:23;11.03;;;8.43;;
9238;SDS011;4654;43.242;27.976;2024-02-21T03:53:50;9.60;;;7.27;;
9238;SDS011;4654;43.242;27.976;2024-02-21T03:56:17;8.27;;;7.40;;
9238;SDS011;4654;43.242;27.976;2024-02-21T03:58:43;7.33;;;6.53;;
9238;SDS011;4654;43.242;27.976;2024-02-21T04:01:10;9.60;;;8.17;;
9238;SDS011;4654;43.242;27.976;2024-02-21T04:03:37;9.43;;;8.30;;
9238;SDS011;4654;43.242;27.976;2024-02-21T04:06:04;9.63;;;8.63;;
9238;SDS011;4654;43.242;27.976;2024-02-21T04:08:32;12.70;;;8.83;;
9238;SDS011;4654;43.242;27.976;2024-02-21T04:10:59;9.63;;;8.60;;
9238;SDS011;4654;43.242;27.976;2024-02-21T04:13:26;9.90;;;8.80;;
9238;SDS011;4654;43.242;27.976;2024-02-21T04:15:53;10.47;;;9.03;;
9238;SDS011;4654;43.242;27.976;2024-02-21T04:18:20;10.33;;;8.90;;
9238;SDS011;4654;43.242;27.976;2024-02-21T04:20:47;11.00;;;9.90;;
9238;SDS011;4654;43.242;27.976;2024-02-21T04:23:13;10.53;;;9.13;;
9238;SDS011;4654;43.242;27.976;2024-02-21T04:25:42;12.13;;;9.77;;
9238;SDS011;4654;43.242;27.976;2024-02-21T04:28:09;11.27;;;9.80;;
9238;SDS011;4654;43.242;27.976;2024-02-21T04:30:35;12.60;;;10.27;;
9238;SDS011;4654;43.242;27.976;2024-02-21T04:33:02;14.50;;;10.70;;
9238;SDS011;4654;43.242;27.976;2024-02-21T04:35:29;14.10;;;11.43;;
9238;SDS011;4654;43.242;27.976;2024-02-21T04:37:56;15.23;;;11.57;;
9238;SDS011;4654;43.242;27.976;2024-02-21T04:40:23;14.53;;;12.10;;
9238;SDS011;4654;43.242;27.976;2024-02-21T04:42:51;15.20;;;11.93;;
9238;SDS011;4654;43.242;27.976;2024-02-21T04:45:18;14.20;;;11.43;;
9238;SDS011;4654;43.242;27.976;2024-02-21T04:47:44;14.90;;;11.60;;
9238;SDS011;4654;43.242;27.976;2024-02-21T04:50:11;14.10;;;11.20;;
9238;SDS011;4654;43.242;27.976;2024-02-21T04:52:38;16.00;;;12.43;;
9238;SDS011;4654;43.242;27.976;2024-02-21T04:55:05;16.97;;;12.03;;
9238;SDS011;4654;43.242;27.976;2024-02-21T04:57:32;14.13;;;11.93;;
9238;SDS011;4654;43.242;27.976;2024-02-21T05:00:00;13.83;;;11.67;;
9238;SDS011;4654;43.242;27.976;2024-02-21T05:02:28;13.17;;;11.60;;
9238;SDS011;4654;43.242;27.976;2024-02-21T05:04:55;13.73;;;11.03;;
9238;SDS011;4654;43.242;27.976;2024-02-21T05:07:22;16.00;;;12.00;;
9238;SDS011;4654;43.242;27.976;2024-02-21T05:09:49;12.40;;;11.10;;
9238;SDS011;4654;43.242;27.976;2024-02-21T05:12:16;12.50;;;11.20;;
9238;SDS011;4654;43.242;27.976;2024-02-21T05:14:43;14.07;;;10.87;;
9238;SDS011;4654;43.242;27.976;2024-02-21T05:17:11;12.87;;;10.10;;
9238;SDS011;4654;43.242;27.976;2024-02-21T05:19:38;10.93;;;9.63;;
9238;SDS011;4654;43.242;27.976;2024-02-21T05:22:04;11.03;;;9.47;;
9238;SDS011;4654;43.242;27.976;2024-02-21T05:24:31;11.30;;;9.80;;
9238;SDS011;4654;43.242;27.976;2024-02-21T05:26:58;10.90;;;8.83;;
9238;SDS011;4654;43.242;27.976;2024-02-21T05:29:25;10.97;;;9.63;;
9238;SDS011;4654;43.242;27.976;2024-02-21T05:31:55;12.73;;;9.53;;
9238;SDS011;4654;43.242;27.976;2024-02-21T05:34:24;8.80;;;7.90;;
9238;SDS011;4654;43.242;27.976;2024-02-21T05:36:51;10.07;;;8.23;;
9238;SDS011;4654;43.242;27.976;2024-02-21T05:39:17;11.27;;;8.90;;
9238;SDS011;4654;43.242;27.976;2024-02-21T05:41:44;9.33;;;8.17;;
9238;SDS011;4654;43.242;27.976;2024-02-21T05:44:11;11.47;;;8.60;;
9238;SDS011;4654;43.242;27.976;2024-02-21T05:46:38;10.40;;;8.23;;
9238;SDS011;4654;43.242;27.976;2024-02-21T05:49:05;10.37;;;7.70;;
9238;SDS011;4654;43.242;27.976;2024-02-21T05:51:33;10.07;;;8.53;;
9238;SDS011;4654;43.242;27.976;2024-02-21T05:54:00;10.30;;;8.03;;
9238;SDS011;4654;43.242;27.976;2024-02-21T05:56:27;8.63;;;7.73;;
9238;SDS011;4654;43.242;27.976;2024-02-21T05:58:54;8.87;;;7.50;;
9238;SDS011;4654;43.242;27.976;2024-02-21T06:01:21;8.27;;;7.07;;
9238;SDS011;4654;43.242;27.976;2024-02-21T06:03:48;9.53;;;7.83;;
9238;SDS011;4654;43.242;27.976;2024-02-21T06:06:15;9.90;;;7.63;;
9238;SDS011;4654;43.242;27.976;2024-02-21T06:08:43;10.23;;;8.13;;
9238;SDS011;4654;43.242;27.976;2024-02-21T06:11:10;9.20;;;8.30;;
9238;SDS011;4654;43.242;27.976;2024-02-21T06:13:38;9.87;;;8.50;;
9238;SDS011;4654;43.242;27.976;2024-02-21T06:16:05;9.40;;;8.13;;
9238;SDS011;4654;43.242;27.976;2024-02-21T06:18:32;10.60;;;8.57;;
9238;SDS011;4654;43.242;27.976;2024-02-21T06:20:59;10.67;;;9.27;;
9238;SDS011;4654;43.242;27.976;2024-02-21T06:23:25;12.77;;;10.13;;
9238;SDS011;4654;43.242;27.976;2024-02-21T06:25:54;11.20;;;9.40;;
9238;SDS011;4654;43.242;27.976;2024-02-21T06:28:20;10.90;;;9.23;;
9238;SDS011;4654;43.242;27.976;2024-02-21T06:30:47;9.97;;;8.80;;
9238;SDS011;4654;43.242;27.976;2024-02-21T06:33:14;11.27;;;9.23;;
9238;SDS011;4654;43.242;27.976;2024-02-21T06:35:41;11.40;;;9.03;;
9238;SDS011;4654;43.242;27.976;2024-02-21T06:38:08;9.87;;;8.87;;
9238;SDS011;4654;43.242;27.976;2024-02-21T06:40:35;11.17;;;9.97;;
9238;SDS011;4654;43.242;27.976;2024-02-21T06:43:06;11.33;;;8.87;;
9238;SDS011;4654;43.242;27.976;2024-02-21T06:45:32;11.77;;;9.13;;
9238;SDS011;4654;43.242;27.976;2024-02-21T06:47:59;10.23;;;8.43;;
9238;SDS011;4654;43.242;27.976;2024-02-21T06:50:26;12.70;;;9.50;;
9238;SDS011;4654;43.242;27.976;2024-02-21T06:52:53;9.80;;;8.80;;
9238;SDS011;4654;43.242;27.976;2024-02-21T06:55:20;12.43;;;10.27;;
9238;SDS011;4654;43.242;27.976;2024-02-21T06:57:46;15.43;;;11.77;;
9238;SDS011;4654;43.242;27.976;2024-02-21T07:00:15;14.83;;;9.70;;
9238;SDS011;4654;43.242;27.976;2024-02-21T07:02:44;13.00;;;11.53;;
9238;SDS011;4654;43.242;27.976;2024-02-21T07:05:11;13.17;;;10.57;;
9238;SDS011;4654;43.242;27.976;2024-02-21T07:07:37;9.50;;;8.60;;
9238;SDS011;4654;43.242;27.976;2024-02-21T07:10:05;10.90;;;9.50;;
9238;SDS011;4654;43.242;27.976;2024-02-21T07:12:33;11.17;;;9.90;;
9238;SDS011;4654;43.242;27.976;2024-02-21T07:15:00;12.93;;;11.60;;
9238;SDS011;4654;43.242;27.976;2024-02-21T07:17:29;14.23;;;12.73;;
9238;SDS011;4654;43.242;27.976;2024-02-21T07:19:55;13.70;;;12.33;;
9238;SDS011;4654;43.242;27.976;2024-02-21T07:22:24;11.93;;;10.63;;
9238;SDS011;4654;43.242;27.976;2024-02-21T07:24:50;13.87;;;12.20;;
9238;SDS011;4654;43.242;27.976;2024-02-21T07:27:17;16.30;;;13.73;;
9238;SDS011;4654;43.242;27.976;2024-02-21T07:29:44;15.33;;;12.97;;
9238;SDS011;4654;43.242;27.976;2024-02-21T07:32:14;13.53;;;10.70;;
9238;SDS011;4654;43.242;27.976;2024-02-21T07:34:42;14.17;;;12.60;;
9238;SDS011;4654;43.242;27.976;2024-02-21T07:37:09;13.07;;;11.37;;
9238;SDS011;4654;43.242;27.976;2024-02-21T07:39:36;14.40;;;11.67;;
9238;SDS011;4654;43.242;27.976;2024-02-21T07:42:03;12.30;;;10.97;;
9238;SDS011;4654;43.242;27.976;2024-02-21T07:44:30;12.27;;;10.97;;
9238;SDS011;4654;43.242;27.976;2024-02-21T07:46:57;15.00;;;11.83;;
9238;SDS011;4654;43.242;27.976;2024-02-21T07:49:24;15.97;;;11.50;;
9238;SDS011;4654;43.242;27.976;2024-02-21T07:51:53;14.37;;;11.43;;
9238;SDS011;4654;43.242;27.976;2024-02-21T07:54:19;14.17;;;11.23;;
9238;SDS011;4654;43.242;27.976;2024-02-21T07:56:46;13.87;;;11.67;;
9238;SDS011;4654;43.242;27.976;2024-02-21T07:59:13;13.63;;;11.40;;
9238;SDS011;4654;43.242;27.976;2024-02-21T08:01:40;15.37;;;12.13;;
9238;SDS011;4654;43.242;27.976;2024-02-21T08:04:07;15.00;;;12.47;;
9238;SDS011;4654;43.242;27.976;2024-02-21T08:06:34;16.20;;;12.67;;
9238;SDS011;4654;43.242;27.976;2024-02-21T08:09:02;15.07;;;12.40;;
9238;SDS011;4654;43.242;27.976;2024-02-21T08:11:29;15.93;;;13.47;;
9238;SDS011;4654;43.242;27.976;2024-02-21T08:13:56;15.50;;;13.30;;
9238;SDS011;4654;43.242;27.976;2024-02-21T08:16:23;17.10;;;13.80;;
9238;SDS011;4654;43.242;27.976;2024-02-21T08:18:51;20.53;;;14.33;;
9238;SDS011;4654;43.242;27.976;2024-02-21T08:21:17;20.33;;;14.40;;
9238;SDS011;4654;43.242;27.976;2024-02-21T08:23:44;15.77;;;13.37;;
9238;SDS011;4654;43.242;27.976;2024-02-21T08:26:12;19.23;;;13.43;;
9238;SDS011;4654;43.242;27.976;2024-02-21T08:28:39;16.93;;;13.83;;
9238;SDS011;4654;43.242;27.976;2024-02-21T08:31:06;19.23;;;16.30;;
9238;SDS011;4654;43.242;27.976;2024-02-21T08:33:33;17.17;;;15.37;;
9238;SDS011;4654;43.242;27.976;2024-02-21T08:35:59;21.53;;;16.37;;
9238;SDS011;4654;43.242;27.976;2024-02-21T08:38:26;20.07;;;17.00;;
9238;SDS011;4654;43.242;27.976;2024-02-21T08:40:53;22.60;;;18.00;;
9238;SDS011;4654;43.242;27.976;2024-02-21T08:43:21;24.53;;;20.50;;
9238;SDS011;4654;43.242;27.976;2024-02-21T08:45:48;24.33;;;21.73;;
9238;SDS011;4654;43.242;27.976;2024-02-21T08:48:15;29.63;;;24.60;;
9238;SDS011;4654;43.242;27.976;2024-02-21T08:50:42;32.83;;;26.77;;
9238;SDS011;4654;43.242;27.976;2024-02-21T08:53:08;33.47;;;28.17;;
9238;SDS011;4654;43.242;27.976;2024-02-21T08:55:35;37.47;;;29.23;;
9238;SDS011;4654;43.242;27.976;2024-02-21T08:58:02;42.13;;;32.60;;
9238;SDS011;4654;43.242;27.976;2024-02-21T09:00:31;36.00;;;30.17;;
9238;SDS011;4654;43.242;27.976;2024-02-21T09:02:58;39.63;;;32.00;;
9238;SDS011;4654;43.242;27.976;2024-02-21T09:05:25;38.87;;;31.77;;
9238;SDS011;4654;43.242;27.976;2024-02-21T09:07:52;41.37;;;31.93;;
9238;SDS011;4654;43.242;27.976;2024-02-21T09:10:18;36.87;;;28.27;;
9238;SDS011;4654;43.242;27.976;2024-02-21T09:12:45;40.57;;;29.80;;
9238;SDS011;4654;43.242;27.976;2024-02-21T09:15:12;36.73;;;27.23;;
9238;SDS011;4654;43.242;27.976;2024-02-21T09:17:40;36.20;;;29.00;;
9238;SDS011;4654;43.242;27.976;2024-02-21T09:20:08;34.83;;;27.77;;
9238;SDS011;4654;43.242;27.976;2024-02-21T09:22:37;39.17;;;28.63;;
9238;SDS011;4654;43.242;27.976;2024-02-21T09:25:05;36.93;;;29.17;;
9238;SDS011;4654;43.242;27.976;2024-02-21T09:27:32;31.80;;;27.17;;
9238;SDS011;4654;43.242;27.976;2024-02-21T09:29:59;38.73;;;29.40;;
9238;SDS011;4654;43.242;27.976;2024-02-21T09:32:26;44.03;;;34.90;;
9238;SDS011;4654;43.242;27.976;2024-02-21T09:34:54;41.03;;;32.33;;
9238;SDS011;4654;43.242;27.976;2024-02-21T09:37:21;41.33;;;32.43;;
9238;SDS011;4654;43.242;27.976;2024-02-21T09:39:48;40.23;;;31.90;;
9238;SDS011;4654;43.242;27.976;2024-02-21T09:42:16;38.03;;;30.13;;
9238;SDS011;4654;43.242;27.976;2024-02-21T09:44:46;35.37;;;30.10;;
9238;SDS011;4654;43.242;27.976;2024-02-21T09:47:17;37.13;;;30.93;;
9238;SDS011;4654;43.242;27.976;2024-02-21T09:49:44;34.50;;;29.37;;
9238;SDS011;4654;43.242;27.976;2024-02-21T09:52:12;40.27;;;33.93;;
9238;SDS011;4654;43.242;27.976;2024-02-21T09:54:41;36.40;;;28.83;;
9238;SDS011;4654;43.242;27.976;2024-02-21T09:57:09;30.80;;;27.30;;
9238;SDS011;4654;43.242;27.976;2024-02-21T09:59:37;39.73;;;30.53;;
9238;SDS011;4654;43.242;27.976;2024-02-21T10:02:04;31.60;;;26.17;;
9238;SDS011;4654;43.242;27.976;2024-02-21T10:04:31;30.20;;;24.80;;
9238;SDS011;4654;43.242;27.976;2024-02-21T10:06:58;33.80;;;25.07;;
9238;SDS011;4654;43.242;27.976;2024-02-21T10:09:27;44.37;;;30.40;;
9238;SDS011;4654;43.242;27.976;2024-02-21T10:11:54;32.03;;;23.90;;
9238;SDS011;4654;43.242;27.976;2024-02-21T10:14:21;53.40;;;41.07;;
9238;SDS011;4654;43.242;27.976;2024-02-21T10:16:48;35.97;;;27.93;;
9238;SDS011;4654;43.242;27.976;2024-02-21T10:19:18;45.00;;;33.43;;
9238;SDS011;4654;43.242;27.976;2024-02-21T10:21:57;48.57;;;33.03;;
9238;SDS011;4654;43.242;27.976;2024-02-21T10:24:27;35.13;;;27.43;;
9238;SDS011;4654;43.242;27.976;2024-02-21T10:26:58;55.53;;;38.33;;
9238;SDS011;4654;43.242;27.976;2024-02-21T10:29:25;82.37;;;52.70;;
9238;SDS011;4654;43.242;27.976;2024-02-21T10:31:52;74.77;;;46.63;;
9238;SDS011;4654;43.242;27.976;2024-02-21T10:34:19;34.83;;;27.67;;
9238;SDS011;4654;43.242;27.976;2024-02-21T10:36:46;74.90;;;50.73;;
9238;SDS011;4654;43.242;27.976;2024-02-21T10:39:12;37.57;;;29.10;;
9238;SDS011;4654;43.242;27.976;2024-02-21T10:41:41;64.50;;;45.63;;
9238;SDS011;4654;43.242;27.976;2024-02-21T10:44:08;35.57;;;28.63;;
9238;SDS011;4654;43.242;27.976;2024-02-21T10:46:36;42.57;;;33.00;;
9238;SDS011;4654;43.242;27.976;2024-02-21T10:49:07;31.37;;;25.13;;
9238;SDS011;4654;43.242;27.976;2024-02-21T10:51:37;31.57;;;25.20;;
9238;SDS011;4654;43.242;27.976;2024-02-21T10:54:09;28.53;;;23.93;;
9238;SDS011;4654;43.242;27.976;2024-02-21T10:56:41;25.07;;;21.27;;
9238;SDS011;4654;43.242;27.976;2024-02-21T10:59:08;28.87;;;20.30;;
9238;SDS011;4654;43.242;27.976;2024-02-21T11:01:35;24.50;;;21.37;;
9238;SDS011;4654;43.242;27.976;2024-02-21T11:04:03;31.93;;;22.87;;
9238;SDS011;4654;43.242;27.976;2024-02-21T11:06:31;23.73;;;19.30;;
9238;SDS011;4654;43.242;27.976;2024-02-21T11:09:01;32.17;;;24.57;;
9238;SDS011;4654;43.242;27.976;2024-02-21T11:11:29;26.23;;;19.13;;
9238;SDS011;4654;43.242;27.976;2024-02-21T11:14:05;25.07;;;18.60;;
9238;SDS011;4654;43.242;27.976;2024-02-21T11:16:35;26.37;;;19.90;;
9238;SDS011;4654;43.242;27.976;2024-02-21T11:19:04;19.33;;;16.97;;
9238;SDS011;4654;43.242;27.976;2024-02-21T11:21:32;22.90;;;19.73;;
9238;SDS011;4654;43.242;27.976;2024-02-21T11:23:59;23.33;;;18.03;;
9238;SDS011;4654;43.242;27.976;2024-02-21T11:26:28;21.80;;;18.07;;
9238;SDS011;4654;43.242;27.976;2024-02-21T11:28:58;21.87;;;18.23;;
9238;SDS011;4654;43.242;27.976;2024-02-21T11:31:27;20.20;;;18.07;;
9238;SDS011;4654;43.242;27.976;2024-02-21T11:33:54;23.93;;;19.83;;
9238;SDS011;4654;43.242;27.976;2024-02-21T11:36:25;24.20;;;19.77;;
9238;SDS011;4654;43.242;27.976;2024-02-21T11:38:52;24.70;;;20.27;;
9238;SDS011;4654;43.242;27.976;2024-02-21T11:41:19;28.10;;;20.80;;
9238;SDS011;4654;43.242;27.976;2024-02-21T11:43:46;27.40;;;20.77;;
9238;SDS011;4654;43.242;27.976;2024-02-21T11:46:13;27.27;;;21.17;;
9238;SDS011;4654;43.242;27.976;2024-02-21T11:48:42;28.50;;;21.30;;
9238;SDS011;4654;43.242;27.976;2024-02-21T11:51:09;26.20;;;21.27;;
9238;SDS011;4654;43.242;27.976;2024-02-21T11:53:36;26.03;;;20.03;;
9238;SDS011;4654;43.242;27.976;2024-02-21T11:56:03;26.43;;;21.47;;
9238;SDS011;4654;43.242;27.976;2024-02-21T11:58:30;28.97;;;22.57;;
9238;SDS011;4654;43.242;27.976;2024-02-21T12:00:57;28.57;;;21.47;;
9238;SDS011;4654;43.242;27.976;2024-02-21T12:03:24;48.60;;;39.40;;
9238;SDS011;4654;43.242;27.976;2024-02-21T12:05:52;31.03;;;24.30;;
9238;SDS011;4654;43.242;27.976;2024-02-21T12:08:21;33.67;;;26.43;;
9238;SDS011;4654;43.242;27.976;2024-02-21T12:10:48;25.37;;;20.93;;
9238;SDS011;4654;43.242;27.976;2024-02-21T12:13:16;25.67;;;21.70;;
9238;SDS011;4654;43.242;27.976;2024-02-21T12:15:47;26.67;;;21.33;;
9238;SDS011;4654;43.242;27.976;2024-02-21T12:18:14;27.30;;;21.60;;
9238;SDS011;4654;43.242;27.976;2024-02-21T12:20:41;29.37;;;24.03;;
9238;SDS011;4654;43.242;27.976;2024-02-21T12:23:10;32.00;;;23.27;;
9238;SDS011;4654;43.242;27.976;2024-02-21T12:25:37;27.97;;;24.30;;
9238;SDS011;4654;43.242;27.976;2024-02-21T12:28:05;26.33;;;23.20;;
9238;SDS011;4654;43.242;27.976;2024-02-21T12:30:32;35.70;;;23.07;;
9238;SDS011;4654;43.242;27.976;2024-02-21T12:33:00;29.33;;;22.90;;
9238;SDS011;4654;43.242;27.976;2024-02-21T12:35:27;27.33;;;21.27;;
9238;SDS011;4654;43.242;27.976;2024-02-21T12:37:56;26.47;;;22.00;;
9238;SDS011;4654;43.242;27.976;2024-02-21T12:40:24;28.10;;;22.13;;
9238;SDS011;4654;43.242;27.976;2024-02-21T12:42:57;27.60;;;22.43;;
9238;SDS011;4654;43.242;27.976;2024-02-21T12:45:24;27.93;;;22.10;;
9238;SDS011;4654;43.242;27.976;2024-02-21T12:47:51;29.20;;;23.80;;
9238;SDS011;4654;43.242;27.976;2024-02-21T12:50:18;29.53;;;23.53;;
9238;SDS011;4654;43.242;27.976;2024-02-21T12:52:45;30.73;;;22.40;;
9238;SDS011;4654;43.242;27.976;2024-02-21T12:55:12;26.13;;;20.50;;
9238;SDS011;4654;43.242;27.976;2024-02-21T12:57:40;25.07;;;20.93;;
9238;SDS011;4654;43.242;27.976;2024-02-21T13:00:08;25.80;;;20.53;;
9238;SDS011;4654;43.242;27.976;2024-02-21T13:02:36;23.20;;;19.30;;
9238;SDS011;4654;43.242;27.976;2024-02-21T13:05:03;23.30;;;20.10;;
9238;SDS011;4654;43.242;27.976;2024-02-21T13:07:30;26.43;;;21.23;;
9238;SDS011;4654;43.242;27.976;2024-02-21T13:09:57;26.20;;;20.50;;
9238;SDS011;4654;43.242;27.976;2024-02-21T13:12:24;25.13;;;20.03;;
9238;SDS011;4654;43.242;27.976;2024-02-21T13:14:54;25.27;;;19.73;;
9238;SDS011;4654;43.242;27.976;2024-02-21T13:17:21;27.93;;;21.63;;
9238;SDS011;4654;43.242;27.976;2024-02-21T13:19:48;27.87;;;21.43;;
9238;SDS011;4654;43.242;27.976;2024-02-21T13:22:15;25.97;;;20.97;;
9238;SDS011;4654;43.242;27.976;2024-02-21T13:24:41;25.87;;;20.83;;
9238;SDS011;4654;43.242;27.976;2024-02-21T13:27:08;27.43;;;21.53;;
9238;SDS011;4654;43.242;27.976;2024-02-21T13:29:35;26.07;;;20.63;;
9238;SDS011;4654;43.242;27.976;2024-02-21T13:32:03;32.07;;;22.23;;
9238;SDS011;4654;43.242;27.976;2024-02-21T13:34:31;31.10;;;23.10;;
9238;SDS011;4654;43.242;27.976;2024-02-21T13:36:58;30.37;;;22.97;;
9238;SDS011;4654;43.242;27.976;2024-02-21T13:39:25;53.80;;;35.07;;
9238;SDS011;4654;43.242;27.976;2024-02-21T13:41:52;35.53;;;27.70;;
9238;SDS011;4654;43.242;27.976;2024-02-21T13:44:19;30.80;;;26.03;;
9238;SDS011;4654;43.242;27.976;2024-02-21T13:46:46;28.67;;;22.23;;
9238;SDS011;4654;43.242;27.976;2024-02-21T13:49:14;28.57;;;22.83;;
9238;SDS011;4654;43.242;27.976;2024-02-21T13:51:41;29.37;;;22.17;;
9238;SDS011;4654;43.242;27.976;2024-02-21T13:54:09;29.60;;;23.80;;
9238;SDS011;4654;43.242;27.976;2024-02-21T13:56:36;29.17;;;23.27;;
9238;SDS011;4654;43.242;27.976;2024-02-21T13:59:03;27.47;;;21.87;;
9238;SDS011;4654;43.242;27.976;2024-02-21T14:01:30;29.87;;;23.27;;
9238;SDS011;4654;43.242;27.976;2024-02-21T14:03:57;31.83;;;23.27;;
9238;SDS011;4654;43.242;27.976;2024-02-21T14:06:25;27.50;;;22.63;;
9238;SDS011;4654;43.242;27.976;2024-02-21T14:08:52;27.07;;;21.67;;
9238;SDS011;4654;43.242;27.976;2024-02-21T14:11:19;29.80;;;22.30;;
9238;SDS011;4654;43.242;27.976;2024-02-21T14:13:46;33.13;;;27.50;;
9238;SDS011;4654;43.242;27.976;2024-02-21T14:16:13;73.60;;;48.70;;
9238;SDS011;4654;43.242;27.976;2024-02-21T14:18:39;58.40;;;42.30;;
9238;SDS011;4654;43.242;27.976;2024-02-21T14:21:07;36.03;;;26.63;;
9238;SDS011;4654;43.242;27.976;2024-02-21T14:23:37;44.53;;;32.37;;
9238;SDS011;4654;43.242;27.976;2024-02-21T14:26:04;34.07;;;26.60;;
9238;SDS011;4654;43.242;27.976;2024-02-21T14:28:31;31.90;;;24.07;;
9238;SDS011;4654;43.242;27.976;2024-02-21T14:30:59;31.47;;;23.57;;
9238;SDS011;4654;43.242;27.976;2024-02-21T14:33:25;31.70;;;24.77;;
9238;SDS011;4654;43.242;27.976;2024-02-21T14:35:52;30.20;;;23.57;;
9238;SDS011;4654;43.242;27.976;2024-02-21T14:38:19;49.60;;;33.40;;
9238;SDS011;4654;43.242;27.976;2024-02-21T14:40:47;30.17;;;24.33;;
9238;SDS011;4654;43.242;27.976;2024-02-21T14:43:14;36.40;;;26.13;;